Memphis, TN

3:21 AM CDT on May 23, 2017 (GMT -0500)
Tioga Environmental in the Pinch District | | Change Station
Active Advisory: Flood Advisory Active Notice: Flood Advisory

Elev 230 ft 35.15 °N, 90.05 °W | Updated 26 seconds ago

Overcast
Overcast
66.6 °F
Feels Like 66.6 °F
N
0.0
Wind Variable Wind from NE
Gusts 0.0 mph

Today
High -- | Low -- °F
--% Chance of Precip.
Yesterday
High -- | Low -- °F
Precip. -- in
Pressure 29.84 in
Visibility 10.0 miles
Clouds Mostly Cloudy 9000 ft
Overcast 25000 ft
Dew Point 60 °F
Humidity 78%
Rainfall 0.00 in
Snow Depth Not available.
5:50 AM 8:03 PM
Waning Crescent, 9% visible
METAR KMEM 230754Z 00000KT 10SM BKN090 OVC250 19/15 A2985 RMK AO2 SLP103 T01890150
Pressure 29.84 in
Visibility 10.0 miles
Clouds Mostly Cloudy 9000 ft
Overcast 25000 ft
Dew Point 60 °F
Humidity 78%
Rainfall 0.00 in
Snow Depth Not available.
5:50 AM 8:03 PM
Waning Crescent, 9% visible
METAR KMEM 230754Z 00000KT 10SM BKN090 OVC250 19/15 A2985 RMK AO2 SLP103 T01890150

Get Your Daily Forecast Email!

Thanks for signing up!

Be on the lookout for a verification email in your inbox.

You'll start receiving severe weather alerts in your inbox..

×

10-Day Weather Forecast

Almanac

Astronomy

May. 23, 2017 Rise Set
Actual Time
Civil Twilight
Nautical Twilight
Astronomical Twilight
Moon
Length of Visible Light
Length of Day
Tomorrow will be .
, % of the Moon is Illuminated

Today's Extremes

State Highs State Lows

Community

WunderPhotos

Category 6

Welcome to Category 6. This is the collective home for Weather Underground's featured writeups by Dr. Jeff Masters (right), Bob Henson (left), Chris Burt, and other regular contributors.

Nearby

Air Quality

  Air Quality AQ Index Pollutant
Not available.

Snow Depth

Station Depth Elevation

Earthquake Activity

City Distance Mag. Time & Date
Minimum magnitude displayed is 2.5.

Coastal Water Temperatures

Place Temperature

Stations

Nearby Weather Stations

Station Location Temp. Windchill Dew Point Humidity Wind Precip. Elev Updated Type
                   

Watches & Warnings

Flood Advisory
Issued: 8:38 PM CDT May. 22, 2017 – National Weather Service

The flood advisory continues for
the Mississippi River at Memphis
* until Thursday may 25.
* At 08 PM Monday the stage was 32.9 feet.
* Flood stage is 34.0 feet.
* Forecast... the river will fall to near 32.9 feet Tuesday may 23.
* At 33.0 feet... in Memphis, Rivergate drive could begin to flood
north of the rail yards. In Arkansas, settlement at Blue Lake is
flooded. Most all secondary roads east of the Arkansas levee are
covered.


Lat... Lon 3539 9025 3539 8995 3533 9005 3513 9004
      3491 9008 3491 9041